Time;durP1;ratioP1;P1;durP2;ratioP2;P2;SDS_P1;SDS_P2;PMS_P1;PMS_P2;Temp;Humidity;BMP_temperature;BMP_pressure;BME280_temperature;BME280_humidity;BME280_pressure;Samples;Min_cycle;Max_cycle;Signal;HPM_P1;HPM_P2
2023/01/10 05:25:09;;;;;;;;;;;4.00;99.90;;;;;;5202170;23;19953;-81
2023/01/10 05:30:24;;;;;;;;;;;4.00;99.90;;;;;;4974359;28;19926;-81
2023/01/10 05:35:38;;;;;;;;;;;4.90;99.90;;;;;;5756101;23;20393;-80
2023/01/10 05:38:11;;;;;;;;;;;4.00;99.90;;;;;;4941816;29;19951;-80
2023/01/10 05:40:46;;;;;;;;;;;3.90;99.90;;;;;;4937474;29;19961;-80
2023/01/10 05:43:24;;;;;;;;;;;4.00;99.90;;;;;;5049413;23;19934;-80
2023/01/10 06:04:54;;;;;;;;;;;4.00;99.90;;;;;;5463339;23;20228;-78
2023/01/10 06:07:24;;;;;;;;;;;4.00;99.90;;;;;;4957255;28;19958;-80
2023/01/10 06:09:52;;;;;;;;;;;4.00;99.90;;;;;;4962556;28;19926;-81
2023/01/10 06:12:20;;;;;;;;;;;4.00;99.90;;;;;;4956817;28;19977;-80
2023/01/10 06:14:47;;;;;;;;;;;4.00;99.90;;;;;;4952573;28;19935;-81
2023/01/10 06:25:26;;;;;;;;;;;4.00;99.90;;;;;;4982487;23;19934;-81
2023/01/10 06:27:58;;;;;;;;;;;3.90;99.90;;;;;;4942157;29;19978;-81
2023/01/10 06:33:21;;;;;;;;;;;3.90;99.90;;;;;;4933767;29;19955;-81
2023/01/10 06:35:50;;;;;;;;;;;3.90;99.90;;;;;;4940626;29;19934;-81
2023/01/10 06:41:17;;;;;;;;;;;3.90;99.90;;;;;;4685490;26;19931;-80
2023/01/10 06:43:53;;;;;;;;;;;3.90;99.90;;;;;;4953889;28;20011;-81
2023/01/10 06:46:23;;;;;;;;;;;3.90;99.90;;;;;;4937215;28;19926;-80
2023/01/10 06:48:54;;;;;;;;;;;3.90;99.90;;;;;;4965874;28;19926;-81
2023/01/10 06:54:20;;;;;;;;;;;3.90;99.90;;;;;;4967139;28;19934;-81
2023/01/10 06:56:56;;;;;;;;;;;3.90;99.90;;;;;;4962632;28;19926;-81
2023/01/10 06:59:25;;;;;;;;;;;3.90;99.90;;;;;;4959187;28;19935;-81
2023/01/10 07:02:07;;;;;;;;;;;3.90;99.90;;;;;;4956175;28;20021;-80
2023/01/10 07:04:42;;;;;;;;;;;3.90;99.90;;;;;;4961851;28;19962;-81
2023/01/10 07:12:44;;;;;;;;;;;3.90;99.90;;;;;;4931769;29;19990;-82
2023/01/10 07:18:03;;;;;;;;;;;3.90;99.90;;;;;;4894133;29;20039;-80
2023/01/10 07:20:29;;;;;;;;;;;3.90;99.90;;;;;;4892112;29;20005;-79
2023/01/10 07:22:57;;;;;;;;;;;3.80;99.90;;;;;;4921860;29;19927;-80
2023/01/10 07:25:25;;;;;;;;;;;3.80;99.90;;;;;;4890956;29;19966;-79
2023/01/10 07:27:54;;;;;;;;;;;3.90;99.90;;;;;;4889318;29;19935;-80
2023/01/10 07:30:22;;;;;;;;;;;3.90;99.90;;;;;;4894218;29;20295;-81
2023/01/10 07:32:52;;;;;;;;;;;3.90;99.90;;;;;;4927948;29;19985;-81
2023/01/10 07:35:20;;;;;;;;;;;3.90;99.90;;;;;;4902724;29;19955;-81
2023/01/10 07:47:29;;;;;;;;;;;3.80;99.90;;;;;;4922266;29;20007;-81
2023/01/10 07:49:58;;;;;;;;;;;3.80;99.90;;;;;;4923595;29;19927;-81
2023/01/10 07:52:28;;;;;;;;;;;3.80;99.90;;;;;;4904290;29;19963;-81
2023/01/10 07:55:12;;;;;;;;;;;3.80;99.90;;;;;;4908694;29;19934;-81
2023/01/10 07:57:40;;;;;;;;;;;3.90;99.90;;;;;;4929550;29;19979;-81
2023/01/10 08:00:08;;;;;;;;;;;3.90;99.90;;;;;;4900672;29;19932;-80
2023/01/10 08:02:41;;;;;;;;;;;3.90;99.90;;;;;;4894727;29;19970;-81
2023/01/10 08:05:14;;;;;;;;;;;3.90;99.90;;;;;;4897159;29;19937;-80
2023/01/10 08:07:42;;;;;;;;;;;3.90;99.90;;;;;;4892845;29;19935;-80
2023/01/10 08:10:09;;;;;;;;;;;3.80;99.90;;;;;;4894022;29;20024;-80
2023/01/10 08:12:37;;;;;;;;;;;3.80;99.90;;;;;;4890843;29;19936;-81
2023/01/10 08:15:05;;;;;;;;;;;3.90;99.90;;;;;;4912150;29;19986;-80
2023/01/10 08:17:34;;;;;;;;;;;3.80;99.90;;;;;;4896182;29;19935;-80
2023/01/10 08:20:03;;;;;;;;;;;3.80;99.90;;;;;;4896118;29;19927;-80
2023/01/10 08:22:32;;;;;;;;;;;3.80;99.90;;;;;;4894587;29;19931;-80
2023/01/10 08:25:02;;;;;;;;;;;3.90;99.90;;;;;;4902283;29;19928;-82
2023/01/10 08:27:29;;;;;;;;;;;3.90;99.90;;;;;;4896322;29;19931;-81
2023/01/10 08:32:52;;;;;;;;;;;3.90;99.90;;;;;;4922064;29;19927;-81
2023/01/10 08:35:24;;;;;;;;;;;3.90;99.90;;;;;;4918259;29;19937;-81
2023/01/10 08:37:53;;;;;;;;;;;3.90;99.90;;;;;;4902526;29;19932;-81
2023/01/10 08:40:20;;;;;;;;;;;3.90;99.90;;;;;;4911826;29;19932;-80
2023/01/10 08:42:47;;;;;;;;;;;3.90;99.90;;;;;;4897948;29;19938;-80
2023/01/10 08:45:15;;;;;;;;;;;3.90;99.90;;;;;;4906844;29;19942;-81
2023/01/10 08:47:47;;;;;;;;;;;3.80;99.90;;;;;;4903906;29;19931;-81
2023/01/10 08:50:16;;;;;;;;;;;3.80;99.90;;;;;;4899432;29;19927;-80
2023/01/10 08:52:47;;;;;;;;;;;3.90;99.90;;;;;;4900739;29;19928;-80
2023/01/10 08:55:15;;;;;;;;;;;3.90;99.90;;;;;;4914613;29;19927;-80
2023/01/10 08:57:43;;;;;;;;;;;3.90;99.90;;;;;;4899483;29;19927;-80
2023/01/10 09:00:13;;;;;;;;;;;3.90;99.90;;;;;;4897916;29;19935;-80
2023/01/10 09:06:02;;;;;;;;;;;3.90;99.90;;;;;;4888766;29;19923;-81
2023/01/10 09:08:32;;;;;;;;;;;3.90;99.90;;;;;;4899511;29;19931;-80
2023/01/10 09:11:04;;;;;;;;;;;3.90;99.90;;;;;;4900861;29;20006;-80
2023/01/10 09:13:31;;;;;;;;;;;3.90;99.90;;;;;;4898565;29;20415;-82
2023/01/10 09:16:00;;;;;;;;;;;3.90;99.90;;;;;;4905011;29;19927;-81
2023/01/10 09:18:27;;;;;;;;;;;3.90;99.90;;;;;;4918841;29;20009;-80
2023/01/10 09:20:55;;;;;;;;;;;3.90;99.90;;;;;;4903390;29;20014;-80
2023/01/10 09:23:25;;;;;;;;;;;3.90;99.90;;;;;;4915269;29;19927;-80
2023/01/10 09:25:54;;;;;;;;;;;3.90;99.90;;;;;;4921660;29;20030;-80
2023/01/10 09:28:23;;;;;;;;;;;3.90;99.90;;;;;;4923263;29;19939;-80
2023/01/10 09:30:50;;;;;;;;;;;3.90;99.90;;;;;;4914371;29;20401;-80
2023/01/10 09:33:17;;;;;;;;;;;3.80;99.90;;;;;;4919515;29;20019;-80
2023/01/10 09:35:45;;;;;;;;;;;3.90;99.90;;;;;;4903407;29;20468;-82
2023/01/10 09:38:14;;;;;;;;;;;3.90;99.90;;;;;;4919997;29;19938;-81
2023/01/10 09:40:50;;;;;;;;;;;3.90;99.90;;;;;;4921093;29;19935;-80
2023/01/10 09:43:22;;;;;;;;;;;3.90;99.90;;;;;;4919759;29;19965;-80
2023/01/10 09:45:54;;;;;;;;;;;3.80;99.90;;;;;;4902218;29;19967;-80
2023/01/10 09:48:26;;;;;;;;;;;3.90;99.90;;;;;;4938080;29;19927;-81
2023/01/10 09:51:00;;;;;;;;;;;3.90;99.90;;;;;;4921718;29;19982;-80
2023/01/10 09:54:19;;;;;;;;;;;3.90;99.90;;;;;;5188692;23;20501;-80
2023/01/10 12:25:03;;;;;;;;;;;4.10;99.90;;;;;;4949038;28;19922;-81
2023/01/10 12:27:31;;;;;;;;;;;4.10;99.90;;;;;;4941180;28;19930;-81
2023/01/10 12:30:05;;;;;;;;;;;4.10;99.90;;;;;;4926530;29;19927;-80
2023/01/10 12:32:36;;;;;;;;;;;4.10;99.90;;;;;;4930804;29;19934;-81
2023/01/10 12:35:06;;;;;;;;;;;4.10;99.90;;;;;;4917692;29;19935;-79
2023/01/10 12:37:40;;;;;;;;;;;4.10;99.90;;;;;;4926380;29;19934;-80
2023/01/10 12:40:13;;;;;;;;;;;4.10;99.90;;;;;;4933543;28;19977;-79
2023/01/10 12:45:32;;;;;;;;;;;4.10;99.90;;;;;;4934533;28;20029;-79
2023/01/10 12:48:03;;;;;;;;;;;4.10;99.90;;;;;;4932714;29;19968;-81
2023/01/10 12:50:39;;;;;;;;;;;4.10;99.90;;;;;;4943789;29;19927;-81
2023/01/10 12:53:14;;;;;;;;;;;4.10;99.90;;;;;;4945991;29;19923;-81
2023/01/10 12:55:45;;;;;;;;;;;4.20;99.90;;;;;;4950951;29;19942;-81
2023/01/10 12:58:20;;;;;;;;;;;4.10;99.90;;;;;;4929632;29;19973;-81
2023/01/10 13:01:06;;;;;;;;;;;4.20;99.90;;;;;;4946124;29;19926;-82
2023/01/10 13:03:50;;;;;;;;;;;4.20;99.90;;;;;;4958876;29;19911;-82
2023/01/10 13:06:44;;;;;;;;;;;4.20;99.90;;;;;;4952261;29;19965;-81
2023/01/10 13:09:18;;;;;;;;;;;4.20;99.90;;;;;;4959186;29;20033;-82
2023/01/10 13:12:02;;;;;;;;;;;4.20;99.90;;;;;;4948460;29;19950;-81
2023/01/10 13:14:53;;;;;;;;;;;4.20;99.90;;;;;;4945456;29;19934;-82
2023/01/10 13:17:45;;;;;;;;;;;4.20;99.90;;;;;;4940596;29;19934;-82
2023/01/10 13:20:28;;;;;;;;;;;4.20;99.90;;;;;;4938125;29;19927;-82
2023/01/10 13:23:02;;;;;;;;;;;4.20;99.90;;;;;;4960962;28;19954;-81
2023/01/10 13:25:54;;;;;;;;;;;4.20;99.90;;;;;;4955105;28;19927;-82
2023/01/10 13:28:40;;;;;;;;;;;4.20;99.90;;;;;;4932388;29;20278;-81
2023/01/10 13:31:17;;;;;;;;;;;4.20;99.90;;;;;;4957392;28;19926;-81
2023/01/10 13:34:01;;;;;;;;;;;4.30;99.90;;;;;;4942980;29;19937;-82
2023/01/10 13:36:34;;;;;;;;;;;4.30;99.90;;;;;;4947085;29;20050;-82
2023/01/10 13:39:12;;;;;;;;;;;4.30;99.90;;;;;;4932697;29;20432;-82
2023/01/10 13:45:20;;;;;;;;;;;4.20;99.90;;;;;;4954248;29;19979;-82
2023/01/10 13:48:29;;;;;;;;;;;4.30;99.90;;;;;;4932453;29;19934;-82
2023/01/10 14:05:19;;;;;;;;;;;4.30;99.90;;;;;;4969666;28;19960;-81
2023/01/10 14:07:50;;;;;;;;;;;4.30;99.90;;;;;;4927645;29;20025;-79
2023/01/10 14:10:22;;;;;;;;;;;4.30;99.90;;;;;;4926826;29;19977;-78
2023/01/10 14:12:51;;;;;;;;;;;4.30;99.90;;;;;;4930197;29;19982;-79
2023/01/10 14:15:23;;;;;;;;;;;4.30;99.90;;;;;;4923662;29;19970;-79
2023/01/10 14:17:58;;;;;;;;;;;4.30;99.90;;;;;;4930526;29;19985;-80
2023/01/10 14:54:35;;;;;;;;;;;4.40;99.90;;;;;;5692918;23;19939;31
2023/01/10 15:08:24;;;;;;;;;;;4.40;99.90;;;;;;5039172;23;19933;-81
2023/01/10 15:10:57;;;;;;;;;;;4.40;99.90;;;;;;4962857;28;19966;-81
2023/01/10 15:13:27;;;;;;;;;;;4.30;99.90;;;;;;4965309;28;20029;-81
2023/01/10 15:15:54;;;;;;;;;;;4.40;99.90;;;;;;4954892;28;19935;-83
2023/01/10 15:18:29;;;;;;;;;;;4.30;99.90;;;;;;4942172;28;20021;-80
2023/01/10 15:20:57;;;;;;;;;;;4.30;99.90;;;;;;4935789;29;20428;-81
2023/01/10 15:23:26;;;;;;;;;;;4.30;99.90;;;;;;4937926;29;19933;-80
2023/01/10 15:25:59;;;;;;;;;;;4.30;99.90;;;;;;4923974;29;20411;-80
2023/01/10 15:28:28;;;;;;;;;;;4.30;99.90;;;;;;4927160;29;19966;-80
2023/01/10 15:30:57;;;;;;;;;;;4.30;99.90;;;;;;4923169;28;19954;-80
2023/01/10 15:33:26;;;;;;;;;;;4.30;99.90;;;;;;4926310;29;19927;-81
2023/01/10 15:35:53;;;;;;;;;;;4.30;99.90;;;;;;4929223;29;19934;-80
2023/01/10 15:38:22;;;;;;;;;;;4.30;99.90;;;;;;4928765;29;19942;-80
2023/01/10 15:40:54;;;;;;;;;;;4.30;99.90;;;;;;4930644;29;19926;-80
2023/01/10 15:43:25;;;;;;;;;;;4.30;99.90;;;;;;4939276;28;19942;-80
2023/01/10 15:45:54;;;;;;;;;;;4.30;99.90;;;;;;4929711;29;20014;-79
2023/01/10 15:48:25;;;;;;;;;;;4.30;99.90;;;;;;4936928;29;20049;-80
2023/01/10 15:50:54;;;;;;;;;;;4.30;99.90;;;;;;4926510;29;19950;-80
2023/01/10 15:53:43;;;;;;;;;;;4.30;99.90;;;;;;4932260;29;19930;-79
2023/01/10 15:56:11;;;;;;;;;;;4.40;99.90;;;;;;4932222;29;19926;-80
2023/01/10 15:58:42;;;;;;;;;;;4.30;99.90;;;;;;4929908;29;20394;-79
2023/01/10 16:01:12;;;;;;;;;;;4.30;99.90;;;;;;4927894;29;20353;-80
2023/01/10 16:03:43;;;;;;;;;;;4.30;99.90;;;;;;4925130;29;19930;-79
2023/01/10 16:06:17;;;;;;;;;;;4.30;99.90;;;;;;4926257;29;19942;-80
2023/01/10 16:08:47;;;;;;;;;;;4.30;99.90;;;;;;4932881;29;19927;-80
2023/01/10 16:13:25;;;;;;;;;;;4.30;99.90;;;;;;4930690;29;19935;-80
2023/01/10 16:14:05;;;;;;;;;;;4.30;99.90;;;;;;4931137;29;20639;-80
2023/01/10 16:16:32;;;;;;;;;;;4.30;99.90;;;;;;4933196;29;19930;-81
2023/01/10 16:18:59;;;;;;;;;;;4.30;99.90;;;;;;4930177;29;19930;-81
2023/01/10 16:21:27;;;;;;;;;;;4.30;99.90;;;;;;4925907;29;19927;-80
2023/01/10 16:23:54;;;;;;;;;;;4.30;99.90;;;;;;4936726;29;19941;-80
2023/01/10 16:26:21;;;;;;;;;;;4.30;99.90;;;;;;4935123;29;19934;-80
2023/01/10 16:28:55;;;;;;;;;;;4.30;99.90;;;;;;4939697;29;20349;-81
2023/01/10 16:31:24;;;;;;;;;;;4.30;99.90;;;;;;4934171;29;19931;-80
2023/01/10 16:33:51;;;;;;;;;;;4.30;99.90;;;;;;4935273;29;19938;-80
2023/01/10 16:36:19;;;;;;;;;;;4.30;99.90;;;;;;4935341;29;20393;-81
2023/01/10 16:38:47;;;;;;;;;;;4.30;99.90;;;;;;4940689;28;19938;-80
2023/01/10 16:43:59;;;;;;;;;;;4.30;99.90;;;;;;4931559;29;19927;-80
2023/01/10 16:46:28;;;;;;;;;;;4.30;99.90;;;;;;4929533;29;19930;-79
2023/01/10 16:48:54;;;;;;;;;;;4.30;99.90;;;;;;4930735;29;19934;-79
2023/01/10 16:51:22;;;;;;;;;;;4.30;99.90;;;;;;4941002;28;20609;-80
2023/01/10 16:53:49;;;;;;;;;;;4.30;99.90;;;;;;4944072;28;19930;-80
2023/01/10 16:56:18;;;;;;;;;;;4.20;99.90;;;;;;4945099;28;19931;-80
2023/01/10 16:58:46;;;;;;;;;;;4.20;99.90;;;;;;4933418;28;19927;-80
2023/01/10 17:01:15;;;;;;;;;;;4.20;99.90;;;;;;4938755;29;19942;-80
2023/01/10 17:03:44;;;;;;;;;;;4.20;99.90;;;;;;4929836;28;19941;-79
2023/01/10 17:06:11;;;;;;;;;;;4.30;99.90;;;;;;4928599;28;20376;-80
2023/01/10 17:08:38;;;;;;;;;;;4.20;99.90;;;;;;4955134;28;19931;-80
2023/01/10 17:11:15;;;;;;;;;;;4.20;99.90;;;;;;4963741;28;19954;-80
2023/01/10 17:13:43;;;;;;;;;;;4.20;99.90;;;;;;5025294;23;19990;-78
2023/01/10 17:16:11;;;;;;;;;;;4.20;99.90;;;;;;5031817;23;19910;-80
2023/01/10 17:18:41;;;;;;;;;;;4.20;99.90;;;;;;5282679;23;19930;-80
2023/01/10 17:21:13;;;;;;;;;;;4.20;99.90;;;;;;4945871;28;19973;-80
2023/01/10 17:23:40;;;;;;;;;;;4.20;99.90;;;;;;5133389;23;19925;-79
2023/01/10 17:26:08;;;;;;;;;;;4.20;99.90;;;;;;4959725;28;19945;-80
2023/01/10 17:28:35;;;;;;;;;;;4.20;99.90;;;;;;4951356;28;19949;-80
2023/01/10 17:31:03;;;;;;;;;;;4.10;99.90;;;;;;4960420;28;20397;-79
2023/01/10 17:33:29;;;;;;;;;;;4.10;99.90;;;;;;4955093;28;20349;-80
2023/01/10 17:35:57;;;;;;;;;;;4.10;99.90;;;;;;4959723;28;19932;-80
2023/01/10 17:38:27;;;;;;;;;;;4.10;99.90;;;;;;4966520;28;19934;-81
2023/01/10 17:40:55;;;;;;;;;;;4.10;99.90;;;;;;4972402;28;20013;-81
2023/01/10 17:43:22;;;;;;;;;;;4.10;99.90;;;;;;4952105;28;19933;-81
2023/01/10 17:45:50;;;;;;;;;;;4.10;99.90;;;;;;4955235;28;19937;-81
2023/01/10 17:50:58;;;;;;;;;;;4.10;99.90;;;;;;4960014;28;19957;-81
2023/01/10 17:53:26;;;;;;;;;;;4.10;99.90;;;;;;4959308;28;19938;-78
2023/01/10 17:55:57;;;;;;;;;;;4.10;99.90;;;;;;4954042;28;19927;-81
2023/01/10 17:58:30;;;;;;;;;;;4.10;99.90;;;;;;4959606;28;19934;-81
2023/01/10 18:00:57;;;;;;;;;;;4.10;99.90;;;;;;4957448;28;20390;-80
2023/01/10 18:03:33;;;;;;;;;;;4.10;99.90;;;;;;4951557;28;20385;-81
2023/01/10 18:06:00;;;;;;;;;;;4.10;99.90;;;;;;4928968;28;20069;-80
2023/01/10 18:08:29;;;;;;;;;;;4.00;99.90;;;;;;4929180;29;20303;-80
2023/01/10 18:11:00;;;;;;;;;;;4.10;99.90;;;;;;4933638;28;19927;-78
2023/01/10 18:13:29;;;;;;;;;;;4.10;99.90;;;;;;4940671;28;20317;-81
2023/01/10 18:15:56;;;;;;;;;;;4.00;99.90;;;;;;4951397;28;19931;-80
2023/01/10 18:18:25;;;;;;;;;;;4.00;99.90;;;;;;4948499;28;20025;-80
2023/01/10 18:20:54;;;;;;;;;;;4.00;99.90;;;;;;4929978;28;20452;-79
2023/01/10 18:23:21;;;;;;;;;;;4.00;99.90;;;;;;4946751;28;19938;-80
2023/01/10 18:25:54;;;;;;;;;;;4.00;99.90;;;;;;4948551;28;19927;-81
2023/01/10 18:28:21;;;;;;;;;;;4.00;99.90;;;;;;4932618;28;19938;-80
2023/01/10 18:30:49;;;;;;;;;;;4.00;99.90;;;;;;4945098;28;19934;-79
2023/01/10 18:33:18;;;;;;;;;;;4.00;99.90;;;;;;4944869;28;19934;-79
2023/01/10 18:35:47;;;;;;;;;;;4.00;99.90;;;;;;4927606;28;20372;-80
2023/01/10 18:38:14;;;;;;;;;;;4.00;99.90;;;;;;4942348;28;19934;-79
2023/01/10 18:40:42;;;;;;;;;;;4.00;99.90;;;;;;4925904;28;20051;-79
2023/01/10 18:43:14;;;;;;;;;;;4.00;99.90;;;;;;4947296;28;20013;-79
2023/01/10 18:45:45;;;;;;;;;;;4.00;99.90;;;;;;4943030;28;20358;-79
2023/01/10 18:48:12;;;;;;;;;;;4.00;99.90;;;;;;4936453;28;19984;-80
2023/01/10 18:50:40;;;;;;;;;;;4.00;99.90;;;;;;4933930;28;19934;-79
2023/01/10 18:53:07;;;;;;;;;;;4.00;99.90;;;;;;4948012;28;19933;-80
2023/01/10 18:55:35;;;;;;;;;;;4.00;99.90;;;;;;4950703;28;19942;-80
2023/01/10 18:58:02;;;;;;;;;;;4.00;99.90;;;;;;4922218;28;20353;-79
2023/01/10 19:00:32;;;;;;;;;;;4.00;99.90;;;;;;4930538;28;19926;-79
2023/01/10 19:03:01;;;;;;;;;;;4.00;99.90;;;;;;4935031;28;19933;-80
2023/01/10 19:08:30;;;;;;;;;;;3.90;99.90;;;;;;4892730;29;20048;-80
2023/01/10 19:10:59;;;;;;;;;;;3.90;99.90;;;;;;4889693;29;19927;-79
2023/01/10 19:13:29;;;;;;;;;;;3.90;99.90;;;;;;4875366;29;19950;-80
2023/01/10 19:16:10;;;;;;;;;;;3.90;99.90;;;;;;4892121;29;20022;-80
2023/01/10 19:18:41;;;;;;;;;;;3.90;99.90;;;;;;4897320;29;19934;-78
2023/01/10 19:21:16;;;;;;;;;;;3.90;99.90;;;;;;4885272;29;19935;-80
2023/01/10 19:23:45;;;;;;;;;;;3.90;99.90;;;;;;4874695;29;20042;-80
2023/01/10 19:26:16;;;;;;;;;;;3.90;99.90;;;;;;4898402;29;19927;-81
2023/01/10 19:28:56;;;;;;;;;;;3.90;99.90;;;;;;4890194;29;19935;-80
2023/01/10 19:31:30;;;;;;;;;;;3.90;99.90;;;;;;4891533;29;19932;-80
2023/01/10 19:33:59;;;;;;;;;;;3.90;99.90;;;;;;4894334;29;19927;-81
2023/01/10 19:36:33;;;;;;;;;;;4.00;99.90;;;;;;4892210;29;19959;-81
2023/01/10 19:39:11;;;;;;;;;;;3.90;99.90;;;;;;4896714;29;19936;-81
2023/01/10 19:41:41;;;;;;;;;;;3.90;99.90;;;;;;4900371;29;19984;-81
2023/01/10 19:44:13;;;;;;;;;;;3.90;99.90;;;;;;4898391;29;19982;-81
2023/01/10 19:46:50;;;;;;;;;;;3.90;99.90;;;;;;4899633;29;20056;-81
2023/01/10 19:52:33;;;;;;;;;;;3.90;99.90;;;;;;4909643;29;19930;-80
2023/01/10 19:55:03;;;;;;;;;;;4.00;99.90;;;;;;4889993;29;20022;-81
2023/01/10 19:57:34;;;;;;;;;;;4.00;99.90;;;;;;4904679;29;20022;-82
2023/01/10 20:00:12;;;;;;;;;;;4.00;99.90;;;;;;4914551;29;21467;-81
2023/01/10 20:02:56;;;;;;;;;;;4.00;99.90;;;;;;4904750;29;19965;-81
2023/01/10 20:05:34;;;;;;;;;;;4.00;99.90;;;;;;4895533;29;20349;-80
2023/01/10 20:08:09;;;;;;;;;;;4.00;99.90;;;;;;4907404;29;19933;-80
2023/01/10 20:14:18;;;;;;;;;;;3.90;99.90;;;;;;4899039;29;19935;-80
2023/01/10 20:19:48;;;;;;;;;;;4.00;99.90;;;;;;5175651;23;19927;-82
2023/01/10 20:22:28;;;;;;;;;;;4.00;99.90;;;;;;4921105;29;19931;-81
2023/01/10 20:35:44;;;;;;;;;;;4.00;99.90;;;;;;5132429;23;19938;-80
2023/01/10 20:38:14;;;;;;;;;;;4.00;99.90;;;;;;4941235;29;19935;-81
2023/01/10 20:40:44;;;;;;;;;;;4.00;99.90;;;;;;4934470;29;20013;-80
2023/01/10 20:43:16;;;;;;;;;;;4.00;99.90;;;;;;4929185;29;19935;-80
2023/01/10 20:45:52;;;;;;;;;;;4.00;99.90;;;;;;4928430;28;19934;-80
2023/01/10 20:48:22;;;;;;;;;;;4.00;99.90;;;;;;4923117;29;19982;-81
2023/01/10 20:50:53;;;;;;;;;;;4.00;99.90;;;;;;4934882;29;20413;-79
2023/01/10 20:53:21;;;;;;;;;;;4.00;99.90;;;;;;4918757;29;20440;-80
2023/01/10 20:55:49;;;;;;;;;;;4.00;99.90;;;;;;4924253;29;20404;-80
2023/01/10 20:58:18;;;;;;;;;;;4.00;99.90;;;;;;4928769;29;19946;-81
2023/01/10 21:00:46;;;;;;;;;;;4.00;99.90;;;;;;4907399;29;19931;-79
2023/01/10 21:03:14;;;;;;;;;;;4.00;99.90;;;;;;4926759;29;19990;-81
2023/01/10 21:05:49;;;;;;;;;;;4.00;99.90;;;;;;4931804;28;19927;-80
2023/01/10 21:08:40;;;;;;;;;;;4.00;99.90;;;;;;4928386;29;20419;-80
2023/01/10 21:11:13;;;;;;;;;;;4.00;99.90;;;;;;4909014;28;19934;-80
2023/01/10 21:13:57;;;;;;;;;;;3.90;99.90;;;;;;4935748;29;19973;-80
2023/01/10 21:16:28;;;;;;;;;;;4.00;99.90;;;;;;4931062;29;19934;-80
2023/01/10 21:18:58;;;;;;;;;;;4.00;99.90;;;;;;4921595;29;19962;-79
2023/01/10 21:21:28;;;;;;;;;;;4.00;99.90;;;;;;4928637;29;19926;-80
2023/01/10 21:24:02;;;;;;;;;;;4.00;99.90;;;;;;4940134;29;19935;-81
2023/01/10 21:26:33;;;;;;;;;;;4.00;99.90;;;;;;4931794;29;19937;-80
2023/01/10 21:29:02;;;;;;;;;;;4.00;99.90;;;;;;4925487;29;20005;-81
2023/01/10 21:31:30;;;;;;;;;;;4.00;99.90;;;;;;4915978;29;19961;-81
2023/01/10 21:33:57;;;;;;;;;;;4.00;99.90;;;;;;4924595;29;20332;-81
2023/01/10 21:36:26;;;;;;;;;;;4.00;99.90;;;;;;4931740;28;19981;-81
2023/01/10 21:38:54;;;;;;;;;;;4.00;99.90;;;;;;4915736;29;20340;-81
2023/01/10 21:44:13;;;;;;;;;;;4.00;99.90;;;;;;4930003;29;19941;-81
2023/01/10 21:46:45;;;;;;;;;;;4.00;99.90;;;;;;4928952;29;19995;-81
2023/01/10 21:49:14;;;;;;;;;;;4.00;99.90;;;;;;4927512;29;20021;-81
2023/01/10 21:51:43;;;;;;;;;;;4.00;99.90;;;;;;4929968;29;19931;-80
2023/01/10 21:54:13;;;;;;;;;;;4.00;99.90;;;;;;4925920;29;19941;-81
2023/01/10 21:56:44;;;;;;;;;;;4.00;99.90;;;;;;4918339;29;19942;-81
2023/01/10 21:59:12;;;;;;;;;;;4.00;99.90;;;;;;4930962;29;20022;-81
2023/01/10 22:01:42;;;;;;;;;;;4.00;99.90;;;;;;4927194;29;19931;-83
2023/01/10 22:04:11;;;;;;;;;;;4.00;99.90;;;;;;4916508;29;19934;-81
2023/01/10 22:06:39;;;;;;;;;;;4.00;99.90;;;;;;4923344;29;19931;-81
2023/01/10 22:09:06;;;;;;;;;;;4.00;99.90;;;;;;4926090;29;20009;-81
2023/01/10 22:11:35;;;;;;;;;;;4.00;99.90;;;;;;4931488;29;20394;-81
2023/01/10 22:14:04;;;;;;;;;;;4.00;99.90;;;;;;4931001;29;19939;-80
2023/01/10 22:16:34;;;;;;;;;;;4.00;99.90;;;;;;4933795;29;20405;-81
2023/01/10 22:19:02;;;;;;;;;;;4.00;99.90;;;;;;4931513;29;20026;-81
2023/01/10 22:21:30;;;;;;;;;;;4.00;99.90;;;;;;4934752;29;20316;-80
2023/01/10 22:23:58;;;;;;;;;;;4.00;99.90;;;;;;4931708;29;20374;-80
2023/01/10 22:26:26;;;;;;;;;;;4.00;99.90;;;;;;4929863;29;19934;-80
2023/01/10 22:28:54;;;;;;;;;;;4.00;99.90;;;;;;4928221;29;20405;-81
2023/01/10 22:31:52;;;;;;;;;;;4.00;99.90;;;;;;4933521;29;19966;-81
2023/01/10 22:40:13;;;;;;;;;;;4.00;99.90;;;;;;4923222;29;19941;-81
2023/01/10 22:43:09;;;;;;;;;;;4.10;99.90;;;;;;4929555;29;19931;-80
2023/01/10 22:48:26;;;;;;;;;;;4.00;99.90;;;;;;5843775;23;20342;-81
2023/01/10 22:51:01;;;;;;;;;;;4.00;99.90;;;;;;4952124;28;19930;-81
2023/01/10 22:53:31;;;;;;;;;;;4.00;99.90;;;;;;4950058;28;20354;-80
2023/01/10 22:56:00;;;;;;;;;;;4.00;99.90;;;;;;4929366;29;19935;-80
2023/01/10 22:58:28;;;;;;;;;;;4.00;99.90;;;;;;4933915;29;20025;-81
2023/01/10 23:00:58;;;;;;;;;;;4.00;99.90;;;;;;4931236;29;20342;-81
2023/01/10 23:03:25;;;;;;;;;;;4.00;99.90;;;;;;4931778;29;20029;-81
2023/01/10 23:05:55;;;;;;;;;;;4.10;99.90;;;;;;4930130;29;19977;-81
2023/01/10 23:08:25;;;;;;;;;;;4.10;99.90;;;;;;4930123;29;19930;-81
2023/01/10 23:10:53;;;;;;;;;;;4.10;99.90;;;;;;4935689;29;19927;-81
2023/01/10 23:13:27;;;;;;;;;;;4.10;99.90;;;;;;4932372;29;19958;-81
2023/01/10 23:15:55;;;;;;;;;;;4.10;99.90;;;;;;4931059;28;20325;-80
2023/01/10 23:18:23;;;;;;;;;;;4.00;99.90;;;;;;4930597;29;19927;-80
2023/01/10 23:20:50;;;;;;;;;;;4.10;99.90;;;;;;4932109;29;20416;-81
2023/01/10 23:23:20;;;;;;;;;;;4.00;99.90;;;;;;4931296;28;19950;-81
2023/01/10 23:26:01;;;;;;;;;;;4.00;99.90;;;;;;4929845;29;19927;-81
2023/01/10 23:28:28;;;;;;;;;;;4.10;99.90;;;;;;4931674;29;19939;-81
2023/01/10 23:30:55;;;;;;;;;;;4.10;99.90;;;;;;4928660;29;20420;-81
2023/01/10 23:33:23;;;;;;;;;;;4.10;99.90;;;;;;4932001;29;19927;-81
2023/01/10 23:35:50;;;;;;;;;;;4.00;99.90;;;;;;4916206;29;20401;-80
2023/01/10 23:38:21;;;;;;;;;;;4.10;99.90;;;;;;4934827;29;19958;-81
2023/01/10 23:40:51;;;;;;;;;;;4.10;99.90;;;;;;4932910;29;19926;-80
2023/01/10 23:43:20;;;;;;;;;;;4.10;99.90;;;;;;4927939;29;20357;-81
2023/01/10 23:45:47;;;;;;;;;;;4.00;99.90;;;;;;4934274;29;19931;-80
2023/01/10 23:48:15;;;;;;;;;;;4.00;99.90;;;;;;4931917;29;19934;-81
2023/01/10 23:50:42;;;;;;;;;;;4.10;99.90;;;;;;4931022;29;20374;-81
2023/01/10 23:53:09;;;;;;;;;;;4.10;99.90;;;;;;4932732;29;19926;-80
2023/01/10 23:55:36;;;;;;;;;;;4.10;99.90;;;;;;4935769;29;20061;-80
2023/01/10 23:58:06;;;;;;;;;;;4.00;99.90;;;;;;4914181;29;19941;-80
